createdAt,value
2023-02-27T00:01:51.466Z,67.63
2023-02-27T00:03:53.132Z,67.54
2023-02-27T00:05:54.818Z,67.53
2023-02-27T00:07:56.468Z,67.53
2023-02-27T00:09:59.882Z,67.91
2023-02-27T00:12:01.426Z,67.65
2023-02-27T00:14:03.028Z,67.92
2023-02-27T00:16:05.491Z,67.94
2023-02-27T00:18:07.364Z,67.93
2023-02-27T00:20:12.927Z,67.55
2023-02-27T00:22:14.708Z,67.90
2023-02-27T00:24:16.270Z,67.92
2023-02-27T00:26:19.385Z,67.89
2023-02-27T00:28:21.204Z,67.56
2023-02-27T00:30:23.044Z,67.40
2023-02-27T00:32:24.781Z,68.04
2023-02-27T00:34:26.609Z,67.73
2023-02-27T00:36:28.141Z,67.65
2023-02-27T00:38:29.908Z,68.16
2023-02-27T00:40:31.679Z,68.57
2023-02-27T00:42:35.234Z,68.69
2023-02-27T00:44:36.974Z,68.60
2023-02-27T00:46:38.781Z,68.21
2023-02-27T00:48:40.465Z,68.28
2023-02-27T00:50:42.729Z,68.30
2023-02-27T00:52:44.492Z,68.44
2023-02-27T00:54:46.542Z,68.53
2023-02-27T00:56:48.186Z,68.68
2023-02-27T00:58:51.089Z,68.93
2023-02-27T01:00:52.678Z,69.01
2023-02-27T01:02:54.858Z,68.52
2023-02-27T01:04:56.753Z,68.92
2023-02-27T01:06:58.519Z,69.12
2023-02-27T01:09:00.248Z,69.10
2023-02-27T01:11:01.865Z,68.85
2023-02-27T01:13:03.707Z,69.41
2023-02-27T01:15:10.253Z,69.50
2023-02-27T01:17:11.991Z,69.65
2023-02-27T01:19:13.471Z,69.18
2023-02-27T01:21:15.128Z,69.46
2023-02-27T01:23:17.245Z,69.55
2023-02-27T01:25:19.010Z,69.55
2023-02-27T01:27:20.855Z,69.30
2023-02-27T01:29:22.719Z,69.67
2023-02-27T01:31:26.646Z,69.79
2023-02-27T01:33:28.656Z,69.68
2023-02-27T01:35:30.218Z,70.24
2023-02-27T01:37:32.334Z,70.04
2023-02-27T01:39:34.107Z,69.45
2023-02-27T01:41:35.977Z,69.92
2023-02-27T01:43:54.369Z,68.91
2023-02-27T01:45:56.387Z,70.20
2023-02-27T01:48:14.283Z,69.28
2023-02-27T01:50:17.738Z,70.76
2023-02-27T01:52:19.785Z,70.20
2023-02-27T01:54:25.584Z,70.29
2023-02-27T01:56:29.789Z,70.59
2023-02-27T01:58:32.062Z,71.04
2023-02-27T02:00:33.922Z,70.19
2023-02-27T02:02:40.118Z,70.29
2023-02-27T02:04:44.273Z,69.93
2023-02-27T02:06:49.550Z,70.16
2023-02-27T02:08:53.577Z,70.54
2023-02-27T02:10:58.109Z,70.64
2023-02-27T02:13:00.723Z,70.58
2023-02-27T02:15:02.541Z,70.07
2023-02-27T02:17:15.072Z,69.44
2023-02-27T02:19:48.276Z,69.39
2023-02-27T02:22:34.588Z,69.52
2023-02-27T02:25:12.278Z,69.77
2023-02-27T02:27:30.933Z,70.09
2023-02-27T02:30:06.057Z,69.25
2023-02-27T02:32:37.903Z,70.28
2023-02-27T02:35:30.481Z,69.77
2023-02-27T02:38:04.512Z,69.25
2023-02-27T02:40:20.317Z,69.67
2023-02-27T02:42:25.769Z,70.59
2023-02-27T02:44:39.143Z,70.04
2023-02-27T02:46:52.557Z,69.49
2023-02-27T02:49:00.490Z,69.74
2023-02-27T02:51:10.156Z,69.83
2023-02-27T02:53:21.758Z,69.55
2023-02-27T02:55:31.451Z,69.96
2023-02-27T02:57:40.786Z,69.89
2023-02-27T02:59:49.613Z,70.42
2023-02-27T03:01:56.609Z,70.55
2023-02-27T03:04:04.527Z,69.88
2023-02-27T03:06:10.648Z,69.84
2023-02-27T03:08:17.815Z,70.01
2023-02-27T03:10:22.540Z,70.42
2023-02-27T03:12:29.551Z,70.07
2023-02-27T03:14:37.127Z,70.35
2023-02-27T03:16:42.618Z,70.00
2023-02-27T03:18:49.697Z,70.01
2023-02-27T03:20:54.483Z,70.14
2023-02-27T03:23:00.561Z,69.91
2023-02-27T03:25:06.796Z,70.13
2023-02-27T03:27:09.441Z,70.52
2023-02-27T03:29:16.755Z,70.03
2023-02-27T03:31:26.135Z,69.95
2023-02-27T03:33:34.524Z,70.04
2023-02-27T03:35:46.153Z,70.49
2023-02-27T03:37:58.893Z,70.04
2023-02-27T03:40:11.069Z,70.52
2023-02-27T03:42:23.764Z,69.88
2023-02-27T03:44:32.684Z,70.06
2023-02-27T03:46:35.708Z,70.70
2023-02-27T03:48:37.622Z,71.04
2023-02-27T03:50:39.273Z,70.88
2023-02-27T03:52:41.604Z,70.87
2023-02-27T03:54:51.508Z,70.78
2023-02-27T03:56:57.820Z,71.02
2023-02-27T03:58:59.356Z,71.27
2023-02-27T04:01:02.992Z,71.29
2023-02-27T04:03:05.483Z,71.13
2023-02-27T04:05:08.311Z,70.77
2023-02-27T04:07:16.479Z,70.69
2023-02-27T04:09:27.126Z,70.81
2023-02-27T04:11:41.392Z,70.26
2023-02-27T04:13:59.604Z,70.32
2023-02-27T04:16:23.228Z,70.14
2023-02-27T04:18:37.443Z,70.22
2023-02-27T04:20:43.908Z,70.15
2023-02-27T04:22:49.673Z,69.83
2023-02-27T04:24:59.309Z,70.28
2023-02-27T04:27:11.724Z,70.43
2023-02-27T04:29:18.192Z,69.82
2023-02-27T04:31:28.301Z,70.43
2023-02-27T04:33:42.533Z,70.34
2023-02-27T04:35:50.931Z,70.03
2023-02-27T04:37:58.523Z,70.59
2023-02-27T04:40:03.632Z,70.22
2023-02-27T04:42:10.128Z,70.42
2023-02-27T04:44:14.184Z,70.47
2023-02-27T04:46:21.414Z,70.19
2023-02-27T04:48:28.700Z,70.80
2023-02-27T04:50:36.841Z,69.89
2023-02-27T04:52:42.977Z,70.81
2023-02-27T04:54:51.917Z,70.20
2023-02-27T04:56:58.116Z,70.68
2023-02-27T04:59:03.944Z,70.54
2023-02-27T05:01:11.920Z,70.71
2023-02-27T05:03:19.571Z,70.76
2023-02-27T05:05:26.662Z,70.63
2023-02-27T05:07:33.911Z,70.90
2023-02-27T05:09:43.083Z,70.84
2023-02-27T05:11:51.027Z,70.78
2023-02-27T05:13:57.525Z,71.26
2023-02-27T05:16:04.317Z,71.23
2023-02-27T05:18:08.392Z,71.50
2023-02-27T05:20:11.679Z,71.43
2023-02-27T05:22:25.091Z,71.30
2023-02-27T05:24:36.070Z,71.71
2023-02-27T05:26:52.488Z,70.99
2023-02-27T05:28:59.822Z,71.66
2023-02-27T05:31:10.233Z,71.63
2023-02-27T05:33:19.029Z,71.06
2023-02-27T05:35:29.120Z,71.04
2023-02-27T05:37:40.405Z,71.45
2023-02-27T05:39:46.179Z,71.42
2023-02-27T05:41:50.733Z,71.83
2023-02-27T05:43:58.636Z,72.00
2023-02-27T05:46:05.617Z,72.21
2023-02-27T05:48:12.434Z,71.74
2023-02-27T05:50:19.236Z,71.76
2023-02-27T05:52:24.424Z,72.32
2023-02-27T05:54:36.361Z,72.08
2023-02-27T05:56:40.204Z,72.39
2023-02-27T05:58:45.852Z,72.35
2023-02-27T06:00:53.065Z,72.38
2023-02-27T06:02:54.685Z,72.40
2023-02-27T06:04:56.859Z,71.97
2023-02-27T06:06:58.849Z,72.39
2023-02-27T06:09:00.642Z,72.10
2023-02-27T06:11:03.952Z,72.21
2023-02-27T06:13:05.602Z,72.19
2023-02-27T06:15:08.734Z,72.36
2023-02-27T06:17:10.526Z,72.16
2023-02-27T06:19:12.137Z,72.47
2023-02-27T06:21:13.921Z,72.50
2023-02-27T06:23:15.706Z,72.40
2023-02-27T06:25:17.449Z,72.44
2023-02-27T06:27:20.361Z,72.02
2023-02-27T06:29:22.171Z,72.62
2023-02-27T06:31:23.896Z,72.24
2023-02-27T06:33:25.969Z,72.82
2023-02-27T06:35:27.691Z,72.82
2023-02-27T06:37:29.349Z,72.74
2023-02-27T06:39:30.998Z,72.40
2023-02-27T06:41:32.877Z,72.59
2023-02-27T06:43:35.903Z,72.41
2023-02-27T06:45:37.611Z,72.63
2023-02-27T06:47:39.926Z,72.51
2023-02-27T06:49:41.528Z,72.04
2023-02-27T06:51:44.986Z,72.65
2023-02-27T06:53:46.762Z,72.26
2023-02-27T06:55:48.339Z,72.42
2023-02-27T06:57:50.236Z,72.82
2023-02-27T06:59:53.595Z,72.54
2023-02-27T07:01:55.181Z,72.15
2023-02-27T07:03:56.800Z,72.35
2023-02-27T07:05:58.348Z,73.29
2023-02-27T07:08:00.124Z,73.05
2023-02-27T07:10:01.705Z,73.53
2023-02-27T07:12:04.097Z,72.80
2023-02-27T07:14:05.661Z,72.74
2023-02-27T07:16:09.483Z,73.84
2023-02-27T07:18:11.441Z,73.33
2023-02-27T07:20:13.472Z,73.70
2023-02-27T07:22:15.034Z,73.87
2023-02-27T07:24:16.605Z,73.81
2023-02-27T07:26:18.248Z,74.08
2023-02-27T07:28:19.867Z,74.01
2023-02-27T07:30:21.963Z,73.72
2023-02-27T07:32:25.329Z,73.92
2023-02-27T07:34:27.200Z,74.18
2023-02-27T07:36:29.087Z,73.55
2023-02-27T07:38:30.942Z,74.19
2023-02-27T07:40:32.454Z,74.38
2023-02-27T07:42:34.348Z,73.81
2023-02-27T07:44:36.036Z,74.68
2023-02-27T07:46:38.123Z,74.62
2023-02-27T07:48:41.246Z,74.72
2023-02-27T07:50:42.885Z,74.68
2023-02-27T07:52:44.835Z,74.53
2023-02-27T07:54:46.410Z,74.72
2023-02-27T07:56:48.458Z,74.60
2023-02-27T07:58:50.250Z,74.68
2023-02-27T08:00:53.778Z,74.62
2023-02-27T08:02:55.929Z,73.92
2023-02-27T08:04:59.280Z,73.76
2023-02-27T08:07:01.081Z,74.33
2023-02-27T08:09:03.377Z,74.62
2023-02-27T08:11:05.629Z,73.76
2023-02-27T08:13:07.827Z,74.00
2023-02-27T08:15:10.361Z,74.35
2023-02-27T08:17:11.938Z,73.56
2023-02-27T08:19:14.277Z,74.15
2023-02-27T08:21:17.181Z,73.51
2023-02-27T08:23:18.808Z,74.05
2023-02-27T08:25:20.664Z,74.33
2023-02-27T08:27:23.909Z,73.71
2023-02-27T08:29:25.621Z,73.00
2023-02-27T08:31:27.476Z,72.51
2023-02-27T08:33:29.128Z,73.03
2023-02-27T08:35:31.001Z,72.34
2023-02-27T08:37:34.356Z,72.17
2023-02-27T08:39:35.993Z,72.62
2023-02-27T08:41:37.719Z,72.03
2023-02-27T08:43:39.612Z,71.67
2023-02-27T08:45:41.148Z,71.77
2023-02-27T08:47:44.151Z,71.05
2023-02-27T08:49:45.799Z,71.35
2023-02-27T08:51:47.934Z,71.05
2023-02-27T08:53:51.010Z,71.82
2023-02-27T08:55:52.818Z,70.03
2023-02-27T08:57:54.344Z,70.52
2023-02-27T08:59:56.194Z,69.57
2023-02-27T09:01:58.019Z,69.08
2023-02-27T09:03:59.829Z,68.35
2023-02-27T09:06:01.468Z,67.95
2023-02-27T09:08:04.448Z,65.74
2023-02-27T09:10:08.801Z,66.44
2023-02-27T09:12:10.847Z,66.13
2023-02-27T09:14:13.104Z,65.44
2023-02-27T09:16:14.818Z,65.03
2023-02-27T09:18:16.527Z,64.32
2023-02-27T09:20:18.313Z,63.95
2023-02-27T09:22:20.212Z,63.83
2023-02-27T09:24:21.820Z,62.66
2023-02-27T09:26:41.954Z,63.13
2023-02-27T09:28:46.664Z,62.19
2023-02-27T09:30:48.341Z,62.39
2023-02-27T09:32:50.965Z,62.07
2023-02-27T09:34:53.136Z,61.24
2023-02-27T09:36:54.756Z,60.99
2023-02-27T09:38:59.029Z,60.00
2023-02-27T09:41:01.657Z,59.68
2023-02-27T09:43:16.374Z,60.76
2023-02-27T09:45:22.585Z,60.09
2023-02-27T09:47:29.298Z,59.14
2023-02-27T09:49:41.806Z,59.63
2023-02-27T09:51:43.474Z,57.94
2023-02-27T09:53:48.263Z,56.86
2023-02-27T09:55:50.381Z,56.52
2023-02-27T09:57:57.821Z,57.17
2023-02-27T10:00:07.508Z,57.16
2023-02-27T10:02:26.623Z,58.08
2023-02-27T10:04:34.772Z,56.54
2023-02-27T10:06:42.359Z,56.41
2023-02-27T10:08:52.578Z,55.80
2023-02-27T10:11:00.839Z,55.47
2023-02-27T10:13:26.405Z,56.58
2023-02-27T10:15:33.243Z,53.40
2023-02-27T10:17:40.344Z,52.86
2023-02-27T10:19:46.207Z,51.64
2023-02-27T10:21:51.441Z,51.28
2023-02-27T10:23:57.774Z,51.97
2023-02-27T10:26:00.982Z,50.39
2023-02-27T10:28:16.125Z,53.60
2023-02-27T10:30:29.533Z,51.88
2023-02-27T10:32:37.376Z,49.73
2023-02-27T10:34:43.129Z,49.58
2023-02-27T10:36:47.214Z,50.18
2023-02-27T10:38:54.234Z,48.88
2023-02-27T10:40:59.258Z,49.67
2023-02-27T10:43:05.882Z,47.23
2023-02-27T10:45:13.808Z,48.26
2023-02-27T10:47:16.553Z,46.09
2023-02-27T10:49:21.953Z,47.48
2023-02-27T10:51:27.064Z,46.39
2023-02-27T10:53:28.932Z,45.97
2023-02-27T10:55:33.187Z,45.62
2023-02-27T10:57:43.540Z,47.52
2023-02-27T10:59:52.734Z,48.04
2023-02-27T11:01:56.878Z,44.53
2023-02-27T11:03:58.901Z,44.81
2023-02-27T11:06:06.118Z,45.36
2023-02-27T11:08:19.567Z,45.60
2023-02-27T11:10:25.001Z,42.96
2023-02-27T11:12:28.718Z,43.00
2023-02-27T11:14:33.486Z,43.54
2023-02-27T11:16:46.645Z,47.03
2023-02-27T11:18:50.066Z,42.24
2023-02-27T11:20:51.906Z,42.73
2023-02-27T11:23:03.756Z,46.72
2023-02-27T11:25:20.553Z,47.03
2023-02-27T11:27:24.765Z,41.93
2023-02-27T11:29:26.901Z,41.54
2023-02-27T11:31:29.104Z,41.83
2023-02-27T11:33:35.899Z,42.56
2023-02-27T11:35:39.347Z,40.78
2023-02-27T11:37:41.142Z,40.36
2023-02-27T11:39:51.312Z,43.46
2023-02-27T11:41:54.180Z,41.06
2023-02-27T11:43:58.620Z,40.29
2023-02-27T11:46:12.931Z,40.23
2023-02-27T11:48:29.857Z,42.13
2023-02-27T11:50:47.570Z,43.14
2023-02-27T11:52:52.815Z,39.96
2023-02-27T11:54:58.138Z,39.27
2023-02-27T11:57:02.153Z,38.28
2023-02-27T11:59:21.697Z,39.98
2023-02-27T12:01:28.204Z,38.92
2023-02-27T12:03:38.857Z,40.97
2023-02-27T12:05:44.707Z,38.65
2023-02-27T12:07:54.157Z,38.86
2023-02-27T12:10:14.809Z,42.60
2023-02-27T12:12:23.293Z,38.64
2023-02-27T12:14:29.751Z,38.08
2023-02-27T12:16:38.031Z,38.42
2023-02-27T12:18:45.204Z,39.16
2023-02-27T12:20:52.683Z,39.87
2023-02-27T12:22:55.600Z,37.68
2023-02-27T12:25:04.545Z,39.98
2023-02-27T12:27:20.367Z,40.38
2023-02-27T12:29:28.778Z,39.25
2023-02-27T12:31:41.200Z,41.00
2023-02-27T12:33:50.200Z,39.15
2023-02-27T12:35:59.305Z,38.89
2023-02-27T12:38:01.947Z,37.98
2023-02-27T12:40:05.837Z,37.94
2023-02-27T12:42:35.937Z,42.77
2023-02-27T12:44:57.399Z,41.74
2023-02-27T12:47:15.520Z,41.66
2023-02-27T12:49:29.138Z,41.74
2023-02-27T12:51:43.509Z,40.45
2023-02-27T12:53:59.411Z,41.61
2023-02-27T12:56:06.278Z,39.64
2023-02-27T12:58:24.862Z,42.19
2023-02-27T13:00:29.304Z,38.86
2023-02-27T13:02:45.008Z,41.50
2023-02-27T13:04:53.905Z,37.76
2023-02-27T13:07:04.027Z,39.45
2023-02-27T13:09:18.831Z,40.33
2023-02-27T13:11:29.789Z,38.69
2023-02-27T13:13:39.858Z,40.29
2023-02-27T13:15:47.883Z,39.88
2023-02-27T13:17:54.883Z,38.45
2023-02-27T13:20:02.554Z,39.40
2023-02-27T13:22:14.988Z,40.62
2023-02-27T13:24:24.216Z,40.20
2023-02-27T13:26:30.685Z,38.08
2023-02-27T13:28:34.790Z,39.15
2023-02-27T13:30:40.311Z,38.73
2023-02-27T13:32:47.107Z,38.25
2023-02-27T13:34:53.766Z,38.84
2023-02-27T13:37:01.055Z,38.70
2023-02-27T13:39:03.316Z,38.17
2023-02-27T13:41:47.765Z,42.00
2023-02-27T13:43:53.350Z,38.56
2023-02-27T13:45:57.901Z,38.59
2023-02-27T13:47:59.747Z,38.54
2023-02-27T13:50:02.768Z,38.57
2023-02-27T13:52:05.152Z,38.49
2023-02-27T13:54:15.583Z,38.53
2023-02-27T13:56:22.735Z,39.84
2023-02-27T13:58:24.567Z,38.07
2023-02-27T14:00:30.381Z,39.23
2023-02-27T14:02:46.578Z,39.45
2023-02-27T14:04:56.617Z,38.05
2023-02-27T14:07:01.446Z,38.09
2023-02-27T14:09:15.189Z,38.51
2023-02-27T14:11:22.711Z,40.22
2023-02-27T14:13:59.818Z,43.02
2023-02-27T14:16:03.076Z,38.93
2023-02-27T14:18:33.591Z,39.64
2023-02-27T14:20:50.679Z,42.51
2023-02-27T14:23:15.613Z,42.91
2023-02-27T14:25:31.155Z,41.53
2023-02-27T14:27:46.544Z,39.92
2023-02-27T14:29:51.224Z,38.54
2023-02-27T14:31:55.945Z,38.79
2023-02-27T14:33:59.503Z,38.94
2023-02-27T14:36:07.051Z,39.98
2023-02-27T14:38:12.066Z,39.19
2023-02-27T14:40:29.340Z,39.87
2023-02-27T14:42:49.077Z,42.32
2023-02-27T14:44:52.268Z,38.98
2023-02-27T14:46:57.156Z,39.72
2023-02-27T14:49:01.651Z,40.17
2023-02-27T14:51:04.847Z,38.91
2023-02-27T14:53:07.771Z,39.76
2023-02-27T14:55:17.572Z,41.41
2023-02-27T14:57:21.232Z,39.61
2023-02-27T14:59:24.737Z,39.41
2023-02-27T15:01:28.698Z,40.25
2023-02-27T15:03:37.570Z,40.91
2023-02-27T15:05:39.533Z,40.02
2023-02-27T15:07:46.473Z,40.12
2023-02-27T15:09:48.764Z,39.64
2023-02-27T15:12:02.938Z,40.46
2023-02-27T15:14:06.953Z,39.56
2023-02-27T15:16:38.912Z,43.41
2023-02-27T15:18:42.056Z,39.32
2023-02-27T15:20:43.860Z,40.06
2023-02-27T15:22:45.405Z,40.22
2023-02-27T15:24:50.521Z,40.05
2023-02-27T15:26:56.194Z,40.64
2023-02-27T15:28:58.413Z,40.04
2023-02-27T15:31:00.350Z,40.39
2023-02-27T15:33:02.480Z,40.28
2023-02-27T15:35:15.269Z,42.54
2023-02-27T15:37:21.992Z,40.80
2023-02-27T15:39:25.865Z,39.83
2023-02-27T15:41:28.106Z,41.08
2023-02-27T15:43:30.992Z,42.13
2023-02-27T15:45:35.282Z,42.08
2023-02-27T15:47:38.485Z,41.83
2023-02-27T15:49:40.804Z,41.60
2023-02-27T15:51:44.053Z,41.70
2023-02-27T15:53:49.969Z,43.07
2023-02-27T15:55:53.695Z,42.44
2023-02-27T15:58:02.720Z,42.19
2023-02-27T16:00:07.076Z,42.75
2023-02-27T16:02:18.051Z,44.37
2023-02-27T16:04:24.139Z,44.09
2023-02-27T16:06:28.329Z,43.32
2023-02-27T16:08:31.869Z,44.13
2023-02-27T16:10:37.560Z,44.55
2023-02-27T16:12:39.215Z,44.41
2023-02-27T16:14:42.703Z,43.89
2023-02-27T16:16:55.417Z,44.88
2023-02-27T16:18:59.045Z,44.54
2023-02-27T16:21:10.895Z,46.28
2023-02-27T16:23:18.849Z,46.43
2023-02-27T16:25:22.113Z,44.91
2023-02-27T16:27:26.282Z,45.74
2023-02-27T16:29:33.900Z,46.57
2023-02-27T16:31:37.309Z,45.04
2023-02-27T16:33:39.001Z,45.05
2023-02-27T16:35:40.687Z,45.52
2023-02-27T16:37:43.475Z,45.27
2023-02-27T16:39:45.360Z,45.57
2023-02-27T16:41:49.503Z,45.59
2023-02-27T16:43:53.311Z,45.59
2023-02-27T16:45:55.225Z,46.52
2023-02-27T16:47:59.196Z,46.13
2023-02-27T16:50:01.032Z,46.01
2023-02-27T16:52:03.011Z,46.04
2023-02-27T16:54:05.225Z,45.97
2023-02-27T16:56:09.785Z,47.27
2023-02-27T16:58:14.635Z,47.15
2023-02-27T17:00:18.926Z,47.57
2023-02-27T17:02:20.505Z,47.42
2023-02-27T17:04:25.901Z,48.04
2023-02-27T17:06:28.782Z,48.42
2023-02-27T17:08:31.169Z,48.34
2023-02-27T17:10:33.687Z,48.45
2023-02-27T17:12:35.219Z,48.41
2023-02-27T17:14:38.333Z,47.83
2023-02-27T17:16:39.981Z,48.67
2023-02-27T17:18:41.609Z,48.95
2023-02-27T17:20:43.313Z,48.59
2023-02-27T17:22:45.275Z,49.38
2023-02-27T17:24:47.157Z,49.18
2023-02-27T17:26:50.482Z,49.54
2023-02-27T17:28:53.193Z,49.67
2023-02-27T17:30:56.374Z,50.26
2023-02-27T17:33:00.234Z,50.37
2023-02-27T17:35:02.875Z,51.30
2023-02-27T17:37:04.694Z,50.84
2023-02-27T17:39:06.319Z,50.49
2023-02-27T17:41:08.901Z,50.24
2023-02-27T17:43:10.970Z,50.74
2023-02-27T17:45:12.747Z,51.14
2023-02-27T17:47:15.728Z,51.54
2023-02-27T17:49:17.506Z,51.66
2023-02-27T17:51:19.918Z,52.33
2023-02-27T17:53:21.427Z,51.45
2023-02-27T17:55:22.993Z,52.12
2023-02-27T17:57:25.143Z,52.30
2023-02-27T17:59:26.681Z,52.37
2023-02-27T18:01:28.337Z,52.79
2023-02-27T18:03:31.308Z,52.70
2023-02-27T18:05:33.905Z,52.74
2023-02-27T18:07:35.544Z,53.20
2023-02-27T18:09:37.256Z,52.58
2023-02-27T18:11:38.773Z,52.53
2023-02-27T18:13:41.718Z,52.94
2023-02-27T18:15:43.668Z,52.92
2023-02-27T18:17:45.707Z,52.42
2023-02-27T18:19:49.233Z,53.25
2023-02-27T18:21:51.050Z,53.46
2023-02-27T18:23:52.870Z,53.63
2023-02-27T18:25:55.495Z,53.95
2023-02-27T18:27:57.229Z,53.93
2023-02-27T18:29:58.737Z,54.25
2023-02-27T18:32:00.397Z,54.18
2023-02-27T18:34:02.706Z,54.12
2023-02-27T18:36:06.959Z,54.72
2023-02-27T18:38:08.518Z,54.56
2023-02-27T18:40:12.260Z,53.55
2023-02-27T18:42:14.064Z,54.07
2023-02-27T18:44:16.420Z,54.60
2023-02-27T18:46:18.312Z,55.46
2023-02-27T18:48:19.897Z,55.65
2023-02-27T18:50:22.417Z,55.54
2023-02-27T18:52:25.449Z,55.53
2023-02-27T18:54:26.944Z,55.18
2023-02-27T18:56:29.287Z,54.29
2023-02-27T18:58:31.098Z,54.25
2023-02-27T19:00:32.912Z,54.90
2023-02-27T19:02:34.445Z,55.86
2023-02-27T19:04:36.431Z,56.30
2023-02-27T19:06:41.076Z,55.86
2023-02-27T19:08:44.430Z,56.20
2023-02-27T19:10:46.498Z,56.66
2023-02-27T19:12:50.199Z,56.96
2023-02-27T19:14:51.861Z,56.72
2023-02-27T19:16:53.392Z,57.21
2023-02-27T19:18:55.472Z,57.33
2023-02-27T19:21:01.870Z,56.78
2023-02-27T19:23:03.378Z,56.27
2023-02-27T19:25:06.972Z,56.93
2023-02-27T19:27:08.761Z,56.45
2023-02-27T19:29:10.355Z,57.48
2023-02-27T19:31:14.471Z,57.85
2023-02-27T19:33:16.158Z,57.74
2023-02-27T19:35:18.800Z,57.21
2023-02-27T19:37:20.362Z,58.03
2023-02-27T19:39:21.894Z,57.39
2023-02-27T19:41:25.271Z,57.74
2023-02-27T19:43:27.151Z,58.28
2023-02-27T19:45:28.944Z,58.36
2023-02-27T19:47:30.763Z,58.45
2023-02-27T19:49:32.587Z,58.02
2023-02-27T19:51:34.768Z,58.21
2023-02-27T19:53:38.910Z,58.52
2023-02-27T19:55:40.572Z,58.67
2023-02-27T19:57:43.698Z,59.00
2023-02-27T19:59:45.276Z,58.12
2023-02-27T20:01:46.939Z,58.80
2023-02-27T20:03:48.915Z,58.80
2023-02-27T20:05:50.768Z,58.42
2023-02-27T20:07:52.628Z,57.81
2023-02-27T20:09:54.377Z,58.09
2023-02-27T20:11:56.143Z,58.05
2023-02-27T20:13:59.488Z,58.53
2023-02-27T20:16:03.574Z,58.10
2023-02-27T20:18:06.348Z,58.31
2023-02-27T20:20:09.479Z,58.54
2023-02-27T20:22:11.026Z,59.25
2023-02-27T20:24:13.299Z,58.93
2023-02-27T20:26:19.904Z,58.71
2023-02-27T20:28:22.009Z,59.09
2023-02-27T20:30:25.216Z,59.48
2023-02-27T20:32:27.331Z,59.12
2023-02-27T20:34:28.972Z,58.82
2023-02-27T20:36:30.579Z,59.29
2023-02-27T20:38:33.184Z,58.75
2023-02-27T20:40:34.944Z,59.25
2023-02-27T20:42:36.562Z,59.28
2023-02-27T20:44:38.215Z,59.18
2023-02-27T20:46:43.112Z,59.17
2023-02-27T20:48:45.403Z,60.00
2023-02-27T20:50:47.273Z,59.83
2023-02-27T20:52:54.081Z,59.46
2023-02-27T20:54:55.654Z,59.79
2023-02-27T20:56:57.244Z,60.30
2023-02-27T20:59:01.641Z,60.64
2023-02-27T21:01:07.879Z,60.05
2023-02-27T21:03:11.186Z,60.70
2023-02-27T21:05:12.925Z,60.54
2023-02-27T21:07:16.865Z,60.86
2023-02-27T21:09:18.504Z,60.58
2023-02-27T21:11:22.707Z,61.20
2023-02-27T21:13:24.187Z,60.87
2023-02-27T21:15:25.817Z,61.03
2023-02-27T21:17:27.470Z,61.40
2023-02-27T21:19:30.797Z,61.42
2023-02-27T21:21:34.294Z,61.77
2023-02-27T21:23:37.325Z,61.17
2023-02-27T21:25:42.950Z,61.58
2023-02-27T21:27:44.790Z,61.24
2023-02-27T21:29:46.410Z,61.83
2023-02-27T21:31:50.566Z,62.09
2023-02-27T21:33:54.643Z,62.03
2023-02-27T21:35:57.684Z,61.35
2023-02-27T21:38:00.048Z,61.80
2023-02-27T21:40:01.583Z,61.75
2023-02-27T21:42:03.329Z,61.43
2023-02-27T21:44:08.579Z,61.92
2023-02-27T21:46:12.676Z,62.15
2023-02-27T21:48:14.219Z,62.03
2023-02-27T21:50:16.735Z,62.28
2023-02-27T21:52:20.085Z,62.13
2023-02-27T21:54:22.329Z,62.36
2023-02-27T21:56:24.828Z,62.38
2023-02-27T21:58:26.672Z,62.61
2023-02-27T22:00:28.348Z,62.30
2023-02-27T22:02:30.047Z,62.37
2023-02-27T22:04:32.129Z,62.74
2023-02-27T22:06:35.279Z,62.68
2023-02-27T22:08:38.699Z,62.51
2023-02-27T22:10:40.370Z,62.69
2023-02-27T22:12:42.225Z,62.70
2023-02-27T22:14:43.827Z,62.75
2023-02-27T22:16:45.523Z,62.46
2023-02-27T22:18:48.031Z,62.88
2023-02-27T22:20:49.690Z,62.95
2023-02-27T22:22:53.913Z,63.14
2023-02-27T22:24:57.179Z,62.96
2023-02-27T22:26:58.709Z,62.49
2023-02-27T22:29:01.306Z,62.91
2023-02-27T22:31:08.476Z,62.49
2023-02-27T22:33:10.053Z,62.53
2023-02-27T22:35:11.553Z,62.95
2023-02-27T22:37:13.576Z,62.90
2023-02-27T22:39:15.204Z,63.19
2023-02-27T22:41:20.601Z,63.14
2023-02-27T22:43:22.108Z,62.55
2023-02-27T22:45:23.628Z,63.38
2023-02-27T22:47:25.677Z,62.85
2023-02-27T22:49:27.632Z,63.61
2023-02-27T22:51:30.793Z,63.51
2023-02-27T22:53:33.134Z,64.20
2023-02-27T22:55:34.631Z,63.73
2023-02-27T22:57:37.656Z,63.85
2023-02-27T22:59:39.432Z,63.55
2023-02-27T23:01:41.079Z,63.61
2023-02-27T23:03:44.895Z,63.72
2023-02-27T23:05:47.759Z,63.94
2023-02-27T23:07:49.804Z,64.14
2023-02-27T23:09:51.638Z,63.81
2023-02-27T23:11:54.070Z,64.02
2023-02-27T23:13:57.552Z,63.76
2023-02-27T23:15:59.763Z,63.28
2023-02-27T23:18:01.631Z,63.02
2023-02-27T23:20:03.607Z,63.56
2023-02-27T23:22:05.162Z,63.52
2023-02-27T23:24:09.674Z,63.16
2023-02-27T23:26:12.506Z,62.90
2023-02-27T23:28:14.130Z,63.15
2023-02-27T23:30:18.250Z,63.23
2023-02-27T23:32:20.179Z,64.15
2023-02-27T23:34:22.080Z,64.30
2023-02-27T23:36:24.154Z,64.65
2023-02-27T23:38:26.393Z,64.64
2023-02-27T23:40:27.993Z,64.48
2023-02-27T23:42:29.924Z,64.36
2023-02-27T23:44:31.559Z,63.52
2023-02-27T23:46:34.906Z,63.61
2023-02-27T23:48:36.827Z,63.69
2023-02-27T23:50:39.743Z,63.59
2023-02-27T23:52:41.311Z,63.94
2023-02-27T23:54:42.804Z,63.56
2023-02-27T23:56:46.727Z,63.87
2023-02-27T23:58:53.188Z,63.51
